Time;durP1;ratioP1;P1;durP2;ratioP2;P2;SDS_P1;SDS_P2;PMS_P1;PMS_P2;Temp;Humidity;BMP_temperature;BMP_pressure;BME280_temperature;BME280_humidity;BME280_pressure;Samples;Min_cycle;Max_cycle;Signal;HPM_P1;HPM_P2
2023/01/27 00:01:34;;;;;;;34.35;8.00;;;9.20;99.90;;;9.49;79.88;102475.59;5072648;28;20056;-61
2023/01/27 00:04:04;;;;;;;35.03;8.40;;;9.40;99.90;;;9.50;79.67;102479.13;5090004;28;20048;-61
2023/01/27 00:06:35;;;;;;;32.22;6.95;;;9.30;99.90;;;9.45;79.57;102476.38;5075842;28;20076;-62
2023/01/27 00:09:03;;;;;;;31.00;7.80;;;9.40;99.90;;;9.42;79.53;102460.44;5075750;28;20127;-61
2023/01/27 00:14:17;;;;;;;32.25;7.95;;;9.40;99.90;;;9.50;78.85;102473.84;5075767;28;20044;-61
2023/01/27 00:16:46;;;;;;;28.13;7.35;;;9.40;99.90;;;9.40;79.29;102456.88;5075492;28;20055;-61
2023/01/27 00:19:18;;;;;;;35.38;7.82;;;9.30;99.90;;;9.47;79.41;102468.47;5075566;28;20045;-61
2023/01/27 00:24:35;;;;;;;22.33;6.75;;;9.40;99.90;;;9.60;78.48;102454.75;5075771;28;20131;-61
2023/01/27 00:27:04;;;;;;;29.70;6.43;;;9.50;99.90;;;9.64;78.67;102469.81;5074470;28;20118;-61
2023/01/27 00:29:33;;;;;;;29.45;6.97;;;9.50;99.90;;;9.55;78.11;102466.91;5074389;28;20049;-60
2023/01/27 00:34:48;;;;;;;34.00;7.63;;;9.40;99.90;;;9.46;78.32;102446.47;5075665;28;20222;-61
2023/01/27 00:37:17;;;;;;;22.83;6.10;;;9.40;99.90;;;9.40;78.21;102454.22;5075579;28;20037;-61
2023/01/27 00:39:45;;;;;;;19.88;6.22;;;9.40;99.90;;;8.63;77.48;102343.06;5075269;28;20425;-61
2023/01/27 00:42:13;;;;;;;23.38;6.60;;;9.20;99.90;;;9.27;77.81;102465.31;5091036;28;20401;-61
2023/01/27 00:45:47;;;;;;;24.35;5.90;;;9.20;99.90;;;9.18;77.91;102456.25;5075297;28;20360;-61
2023/01/27 00:47:30;;;;;;;30.88;6.53;;;9.10;99.90;;;9.22;77.71;102451.09;5074952;28;20397;-61
2023/01/27 00:50:00;;;;;;;19.70;5.70;;;9.10;99.90;;;9.28;77.31;102453.91;5074020;28;20036;-61
2023/01/27 00:52:29;;;;;;;22.52;6.32;;;9.20;99.90;;;9.05;77.49;102426.00;5090928;28;20497;-61
2023/01/27 00:54:57;;;;;;;22.77;6.50;;;9.20;99.90;;;9.26;77.23;102449.44;5075244;28;20045;-61
2023/01/27 00:57:25;;;;;;;25.65;5.50;;;9.20;99.90;;;9.23;77.35;102458.19;5075157;28;20041;-61
2023/01/27 00:59:54;;;;;;;20.33;5.55;;;9.20;99.90;;;9.29;77.43;102455.69;5074856;28;20047;-60
2023/01/27 01:02:22;;;;;;;18.98;5.28;;;9.10;99.90;;;9.20;76.99;102434.31;5075076;28;20037;-61
2023/01/27 01:04:51;;;;;;;20.45;5.55;;;9.20;99.90;;;9.39;76.79;102468.28;5074954;28;20131;-61
2023/01/27 01:07:20;;;;;;;16.33;5.15;;;9.30;99.90;;;9.40;76.64;102461.25;5074909;28;20095;-61
2023/01/27 01:09:49;;;;;;;16.00;5.72;;;9.30;99.90;;;9.40;76.38;102453.34;5075178;28;20427;-61
2023/01/27 01:12:17;;;;;;;18.05;5.65;;;9.30;99.90;;;9.42;76.75;102459.53;5074901;28;20052;-61
2023/01/27 01:14:45;;;;;;;17.00;4.85;;;9.30;99.90;;;9.42;76.37;102449.88;5074444;28;20056;-61
2023/01/27 01:17:14;;;;;;;18.45;5.30;;;9.30;99.90;;;9.44;76.52;102458.75;5090274;28;20040;-60
2023/01/27 01:19:42;;;;;;;19.83;5.55;;;9.30;99.90;;;9.33;76.38;102460.19;5074507;28;20518;-61
2023/01/27 01:22:10;;;;;;;20.10;5.50;;;9.20;99.90;;;9.31;76.51;102451.34;5074847;28;20408;-63
2023/01/27 01:24:40;;;;;;;19.42;5.70;;;9.20;99.90;;;9.29;76.58;102455.69;5074669;28;20079;-63
2023/01/27 01:27:08;;;;;;;26.88;6.03;;;9.20;99.90;;;9.26;77.29;102452.06;5073382;28;20051;-61
2023/01/27 01:29:36;;;;;;;21.23;5.22;;;9.20;99.90;;;9.25;77.04;102450.31;5074587;28;20094;-63
2023/01/27 01:32:08;;;;;;;23.23;6.35;;;9.20;99.90;;;9.28;77.46;102451.25;5074555;28;20521;-63
2023/01/27 01:34:37;;;;;;;18.25;5.30;;;9.20;99.90;;;9.34;77.30;102455.81;5074793;28;20044;-61
2023/01/27 01:37:06;;;;;;;19.33;5.30;;;9.20;99.90;;;8.73;77.40;102361.81;5074650;28;20044;-60
2023/01/27 01:39:35;;;;;;;18.20;5.55;;;9.20;99.90;;;9.26;77.40;102460.00;5090351;28;20414;-61
2023/01/27 01:42:04;;;;;;;22.30;5.13;;;9.10;99.90;;;9.09;77.93;102468.38;5074572;28;20033;-61
2023/01/27 01:44:33;;;;;;;19.20;5.32;;;9.00;99.90;;;9.15;78.05;102465.00;5073993;28;20132;-61
2023/01/27 01:47:02;;;;;;;15.65;5.57;;;9.00;99.90;;;9.11;77.80;102465.78;5074466;28;20102;-61
2023/01/27 01:49:35;;;;;;;19.23;6.05;;;9.00;99.90;;;9.11;77.68;102463.13;5089749;28;20430;-61
2023/01/27 01:52:09;;;;;;;17.65;5.65;;;9.00;99.90;;;9.06;77.96;102475.28;5072912;28;20072;-61
2023/01/27 01:54:42;;;;;;;15.48;5.63;;;9.00;99.90;;;8.89;78.53;102481.84;5073978;28;20075;-61
2023/01/27 01:57:17;;;;;;;17.48;5.50;;;8.80;99.90;;;8.88;78.10;102480.06;5074159;28;20123;-61
2023/01/27 01:59:51;;;;;;;17.50;5.60;;;8.80;99.90;;;8.78;78.11;102472.75;5089620;28;20110;-60
2023/01/27 02:02:23;;;;;;;15.13;5.68;;;8.70;99.90;;;8.81;78.16;102472.81;5073923;28;20044;-61
2023/01/27 02:05:00;;;;;;;13.05;5.20;;;8.70;99.90;;;8.75;77.78;102470.03;5073814;28;20044;-61
2023/01/27 02:07:34;;;;;;;12.45;5.30;;;8.70;99.90;;;8.78;77.42;102476.28;5072088;28;20052;-61
2023/01/27 02:10:03;;;;;;;18.58;6.25;;;8.80;99.90;;;8.67;77.64;102475.06;5073794;28;20076;-60
2023/01/27 02:12:36;;;;;;;19.33;6.60;;;8.70;99.90;;;8.60;78.31;102472.22;5089387;28;20042;-60
2023/01/27 02:15:10;;;;;;;13.70;5.07;;;8.60;99.90;;;8.62;78.63;102491.59;5073425;28;20062;-61
2023/01/27 02:17:39;;;;;;;16.98;5.93;;;8.60;99.90;;;8.61;78.71;102485.47;5073333;28;20047;-60
2023/01/27 02:20:15;;;;;;;15.85;5.82;;;8.50;99.90;;;8.61;78.59;102484.56;5073321;28;20071;-60
2023/01/27 02:22:51;;;;;;;19.23;6.18;;;8.60;99.90;;;8.62;78.57;102484.59;5073612;28;20078;-61
2023/01/27 02:25:28;;;;;;;13.55;5.75;;;8.50;99.90;;;8.64;78.40;102484.63;5071662;28;20044;-62
2023/01/27 02:27:58;;;;;;;15.52;5.53;;;8.60;99.90;;;8.51;78.25;102482.50;5071949;28;20068;-61
2023/01/27 02:30:27;;;;;;;17.50;6.35;;;8.50;99.90;;;8.55;77.94;102474.72;5073461;28;20068;-61
2023/01/27 02:32:56;;;;;;;12.70;5.82;;;8.50;99.90;;;8.61;77.45;102476.66;5072017;28;20398;-61
2023/01/27 02:35:31;;;;;;;13.55;7.00;;;8.50;99.90;;;8.54;77.45;102478.19;5073366;28;20106;-61
2023/01/27 02:38:00;;;;;;;16.00;5.90;;;8.50;99.90;;;8.52;77.53;102468.44;5071970;28;20067;-61
2023/01/27 02:40:29;;;;;;;15.38;6.15;;;8.50;99.90;;;8.37;77.63;102458.34;5071851;28;20059;-61
2023/01/27 02:43:00;;;;;;;12.60;6.18;;;8.40;99.90;;;8.37;78.26;102455.72;5073191;28;20093;-61
2023/01/27 02:45:28;;;;;;;12.77;6.32;;;8.40;99.90;;;8.47;77.98;102485.88;5088653;28;20044;-61
2023/01/27 02:47:57;;;;;;;16.00;6.53;;;8.40;99.90;;;8.25;78.19;102478.16;5088699;28;20080;-61
2023/01/27 02:50:25;;;;;;;16.60;7.53;;;8.30;99.90;;;8.28;78.79;102486.19;5072911;28;20416;-61
2023/01/27 02:52:53;;;;;;;10.50;5.93;;;8.20;99.90;;;8.21;78.86;102482.41;5072780;28;20040;-61
2023/01/27 02:55:22;;;;;;;12.18;6.43;;;8.20;99.90;;;8.37;78.42;102486.44;5071742;28;20372;-61
2023/01/27 02:57:52;;;;;;;12.50;5.97;;;8.30;99.90;;;8.29;78.46;102480.03;5071692;28;20565;-60
2023/01/27 03:00:54;;;;;;;16.58;7.38;;;8.30;99.90;;;8.46;78.28;102494.66;5060215;28;20040;-61
2023/01/27 03:03:22;;;;;;;16.15;7.05;;;8.40;99.90;;;8.19;77.81;102487.66;5072923;28;20135;-60
2023/01/27 03:05:51;;;;;;;14.35;8.38;;;8.20;99.90;;;8.15;78.45;102504.22;5072822;28;20049;-60
2023/01/27 03:08:19;;;;;;;18.48;8.27;;;8.10;99.90;;;8.07;78.26;102500.44;5071212;28;20483;-61
2023/01/27 03:10:51;;;;;;;14.82;8.88;;;8.10;99.90;;;7.93;78.60;102512.28;5088344;28;20054;-60
2023/01/27 03:13:23;;;;;;;16.38;9.07;;;7.90;99.90;;;7.88;78.95;102513.84;5071557;28;20052;-60
2023/01/27 03:18:46;;;;;;;16.80;9.95;;;7.80;99.90;;;7.71;79.28;102512.41;5071456;28;20050;-61
2023/01/27 03:21:16;;;;;;;16.88;10.30;;;7.70;99.90;;;7.79;79.60;102513.56;5088369;28;20052;-61
2023/01/27 03:23:49;;;;;;;20.60;9.80;;;7.70;99.90;;;7.63;79.72;102521.78;5072775;28;20128;-60
2023/01/27 03:26:22;;;;;;;18.83;10.02;;;7.60;99.90;;;7.81;79.88;102522.41;5072419;28;20807;-61
2023/01/27 03:31:42;;;;;;;15.50;10.38;;;7.80;99.90;;;7.86;79.66;102510.28;5070909;28;20045;-60
2023/01/27 03:34:10;;;;;;;15.07;10.15;;;7.90;99.90;;;7.94;79.80;102515.78;5088173;28;20102;-60
2023/01/27 03:47:56;;;;;;;22.02;12.90;;;7.80;99.90;;;7.60;80.34;102511.16;5076514;28;20444;-60
2023/01/27 03:50:29;;;;;;;17.55;12.63;;;7.60;99.90;;;7.72;80.30;102534.38;5076486;28;20068;-61
2023/01/27 03:53:02;;;;;;;21.17;13.15;;;7.60;99.90;;;7.73;80.74;102531.78;5076387;28;20143;-60
2023/01/27 03:55:31;;;;;;;19.35;13.05;;;7.60;99.90;;;7.71;80.83;102532.56;5076180;28;20066;-60
2023/01/27 03:58:13;;;;;;;19.52;13.23;;;7.60;99.90;;;7.75;80.65;102531.84;5075979;28;20063;-60
2023/01/27 04:00:41;;;;;;;23.50;13.18;;;7.70;99.90;;;7.59;80.71;102535.69;5076356;28;20048;-60
2023/01/27 04:08:43;;;;;;;17.45;13.50;;;7.50;99.90;;;7.45;81.20;102555.41;5075655;28;20478;-60
2023/01/27 04:14:01;;;;;;;20.73;13.98;;;7.40;99.90;;;7.55;81.04;102557.50;5075728;28;20079;-60
2023/01/27 04:16:30;;;;;;;19.85;12.60;;;7.40;99.90;;;7.61;80.50;102560.34;5075673;28;20090;-61
2023/01/27 04:19:00;;;;;;;17.08;12.57;;;7.50;99.90;;;7.54;80.65;102554.81;5075619;28;20067;-61
2023/01/27 04:21:29;;;;;;;21.90;13.20;;;7.50;99.90;;;7.46;80.71;102569.44;5075906;28;20131;-61
2023/01/27 04:23:57;;;;;;;15.98;13.45;;;7.40;99.90;;;7.45;80.66;102558.03;5075531;28;20135;-60
2023/01/27 04:26:31;;;;;;;18.83;12.90;;;7.50;99.90;;;7.46;80.61;102562.44;5075649;28;20045;-61
2023/01/27 04:29:00;;;;;;;18.35;13.90;;;7.40;99.90;;;7.33;80.88;102576.03;5075471;28;20052;-61
2023/01/27 04:31:29;;;;;;;18.95;13.57;;;7.40;99.90;;;7.35;81.21;102576.97;5075625;28;20037;-61
2023/01/27 04:33:57;;;;;;;23.48;15.15;;;7.30;99.90;;;7.19;80.89;102570.25;5091477;28;20059;-61
2023/01/27 04:36:27;;;;;;;22.17;15.60;;;7.20;99.90;;;7.18;80.94;102562.31;5075629;28;20487;-61
2023/01/27 04:38:55;;;;;;;19.60;15.37;;;7.10;99.90;;;7.14;81.10;102560.41;5075193;28;20087;-61
2023/01/27 04:41:24;;;;;;;21.85;15.82;;;7.10;99.90;;;7.00;81.47;102561.63;5075467;28;20047;-61
2023/01/27 04:43:52;;;;;;;21.27;16.63;;;7.00;99.90;;;7.02;81.60;102566.13;5075706;28;20487;-61
2023/01/27 04:46:20;;;;;;;23.30;16.60;;;7.00;99.90;;;6.95;81.84;102573.72;5075259;28;20402;-61
2023/01/27 04:48:49;;;;;;;23.10;16.60;;;6.90;99.90;;;6.81;81.78;102567.03;5074188;28;20086;-60
2023/01/27 04:51:17;;;;;;;26.77;17.33;;;6.80;99.90;;;6.82;82.28;102567.09;5074019;28;20052;-61
2023/01/27 04:53:47;;;;;;;25.77;18.00;;;6.80;99.90;;;6.88;82.06;102571.69;5074974;28;20045;-61
2023/01/27 04:56:23;;;;;;;22.45;17.27;;;6.90;99.90;;;6.97;82.07;102578.19;5074975;28;20048;-61
2023/01/27 04:58:52;;;;;;;24.55;16.23;;;6.90;99.90;;;7.08;82.27;102573.34;5074960;28;20037;-61
2023/01/27 05:01:21;;;;;;;20.83;17.02;;;7.00;99.90;;;7.15;81.85;102593.75;5073806;28;20036;-61
2023/01/27 05:03:50;;;;;;;23.20;16.42;;;7.10;99.90;;;7.14;82.22;102581.47;5074747;28;20085;-60
2023/01/27 05:06:18;;;;;;;25.58;17.50;;;7.00;99.90;;;7.10;81.43;102588.31;5074692;28;20051;-61
2023/01/27 05:08:48;;;;;;;23.45;16.88;;;7.10;99.90;;;6.99;81.10;102575.59;5074554;28;20052;-61
2023/01/27 05:11:16;;;;;;;20.50;15.27;;;7.00;99.90;;;6.59;80.85;102573.19;5075273;28;20091;-61
2023/01/27 05:13:45;;;;;;;20.67;16.02;;;6.60;99.90;;;6.69;81.04;102593.75;5074689;28;20049;-61
2023/01/27 05:16:16;;;;;;;20.38;16.35;;;6.60;99.90;;;6.76;80.98;102592.25;5074584;28;20083;-61
2023/01/27 05:18:47;;;;;;;20.30;15.35;;;6.70;99.90;;;6.75;80.73;102586.13;5075088;28;20067;-60
2023/01/27 05:21:18;;;;;;;17.70;14.43;;;6.70;99.90;;;6.73;80.68;102579.00;5074576;28;20051;-61
2023/01/27 05:23:49;;;;;;;18.38;13.90;;;6.70;99.90;;;6.66;80.51;102595.38;5074726;28;20054;-61
2023/01/27 05:26:19;;;;;;;;;;;6.60;99.90;;;6.75;80.51;102601.00;5090649;28;20508;-61
2023/01/27 05:28:49;;;;;;;19.33;15.60;;;6.70;99.90;;;6.74;80.54;102567.63;5073236;28;19924;-62
2023/01/27 05:31:20;;;;;;;17.65;13.88;;;6.80;99.90;;;6.97;80.32;102606.22;5074360;28;20119;-61
2023/01/27 05:33:50;;;;;;;18.63;14.52;;;6.90;99.90;;;7.10;80.21;102605.84;5074791;28;20089;-60
2023/01/27 05:36:22;;;;;;;17.27;13.25;;;7.00;99.90;;;7.17;79.42;102605.22;5074184;28;20045;-60
2023/01/27 05:38:53;;;;;;;15.82;12.50;;;7.10;99.90;;;7.10;78.93;102590.06;5074188;28;20048;-60
2023/01/27 05:41:22;;;;;;;;;;;7.10;99.90;;;6.97;78.59;102588.69;5074791;28;20458;-60
2023/01/27 05:43:53;;;;;;;11.50;10.02;;;7.00;99.90;;;6.99;78.51;102591.38;5074290;28;19920;-60
2023/01/27 05:46:23;;;;;;;12.27;9.60;;;6.90;99.90;;;6.99;78.15;102571.25;5074363;28;20044;-60
2023/01/27 05:48:54;;;;;;;10.15;9.27;;;7.00;99.90;;;7.16;77.14;102595.56;5074186;28;20055;-60
2023/01/27 05:51:25;;;;;;;10.07;9.10;;;7.10;99.90;;;7.08;76.77;102581.22;5073985;28;20055;-60
2023/01/27 05:53:55;;;;;;;11.48;9.32;;;7.10;99.90;;;7.16;76.51;102606.09;5073823;28;20041;-60
2023/01/27 05:56:25;;;;;;;9.23;8.25;;;7.10;99.90;;;7.02;76.08;102596.78;5074102;28;20044;-61
2023/01/27 05:58:54;;;;;;;10.63;9.10;;;7.00;99.90;;;6.75;75.87;102594.00;5074311;28;20049;-60
2023/01/27 06:01:25;;;;;;;10.25;9.20;;;6.90;99.90;;;6.82;76.48;102601.28;5073970;28;20045;-60
2023/01/27 06:03:54;;;;;;;9.55;8.65;;;6.80;99.90;;;6.95;76.63;102600.91;5073699;28;20041;-60
2023/01/27 06:06:25;;;;;;;9.60;8.60;;;6.90;99.90;;;6.85;76.19;102568.94;5073759;28;20048;-60
2023/01/27 06:08:55;;;;;;;9.70;8.70;;;6.90;99.90;;;7.10;75.95;102608.50;5074033;28;20155;-60
2023/01/27 06:11:24;;;;;;;12.00;8.57;;;7.00;99.90;;;6.88;75.30;102577.84;5072427;28;20147;-60
2023/01/27 06:13:53;;;;;;;9.40;8.55;;;7.00;99.90;;;7.12;75.57;102604.19;5073701;28;20068;-60
2023/01/27 06:16:23;;;;;;;8.85;7.95;;;7.00;99.90;;;7.05;74.82;102602.13;5073606;28;20079;-60
2023/01/27 06:18:52;;;;;;;8.63;7.85;;;7.10;99.90;;;6.96;74.83;102600.06;5073289;28;20048;-60
2023/01/27 06:21:20;;;;;;;8.95;8.00;;;7.00;99.90;;;7.04;74.85;102610.88;5073848;28;20080;-60
2023/01/27 06:23:49;;;;;;;8.65;7.75;;;7.00;99.90;;;7.10;74.41;102626.91;5073219;28;20467;-60
2023/01/27 06:26:20;;;;;;;8.73;7.88;;;7.00;99.90;;;7.11;74.44;102615.53;5073068;28;20090;-60
2023/01/27 06:28:48;;;;;;;8.88;7.50;;;7.00;99.90;;;7.21;74.34;102620.31;5073210;28;20054;-60
2023/01/27 06:31:20;;;;;;;8.20;7.40;;;7.10;99.90;;;7.13;73.62;102617.38;5072042;28;20036;-60
2023/01/27 06:33:50;;;;;;;7.90;7.10;;;7.10;99.90;;;7.09;73.25;102626.00;5073039;28;20036;-60
2023/01/27 06:36:21;;;;;;;8.10;7.30;;;7.10;99.90;;;7.08;73.31;102634.72;5071918;28;20055;-60
2023/01/27 06:38:50;;;;;;;7.65;6.88;;;7.10;99.90;;;7.15;73.12;102630.59;5073271;28;20542;-60
2023/01/27 06:41:20;;;;;;;7.82;7.10;;;7.10;99.90;;;7.13;72.70;102616.47;5088718;28;20461;-60
2023/01/27 06:43:49;;;;;;;7.45;6.80;;;7.10;99.90;;;7.05;72.61;102633.72;5072910;28;20048;-60
2023/01/27 06:46:17;;;;;;;9.95;6.88;;;7.00;99.90;;;7.14;72.49;102634.97;5088651;28;20135;-60
2023/01/27 06:48:46;;;;;;;9.80;7.28;;;7.10;99.90;;;7.06;72.35;102640.78;5072764;28;20056;-60
2023/01/27 06:51:14;;;;;;;8.27;7.10;;;7.00;99.90;;;7.04;72.37;102647.72;5088597;28;20467;-60
2023/01/27 06:53:42;;;;;;;8.27;7.50;;;7.00;99.90;;;7.12;71.99;102636.63;5072586;28;20502;-60
2023/01/27 06:56:11;;;;;;;7.47;6.88;;;7.00;99.90;;;7.18;72.21;102644.75;5072703;28;20093;-61
2023/01/27 06:58:41;;;;;;;10.05;7.22;;;7.10;99.90;;;7.17;71.96;102642.06;5073246;28;20047;-61
2023/01/27 07:01:09;;;;;;;7.63;6.75;;;7.10;99.90;;;7.09;71.28;102625.09;5072713;28;20508;-61
2023/01/27 07:03:38;;;;;;;7.05;6.45;;;7.00;99.90;;;7.05;70.86;102641.59;5071690;28;20509;-61
2023/01/27 07:06:07;;;;;;;8.00;6.95;;;7.00;99.90;;;7.01;70.91;102647.59;5072543;28;20040;-61
2023/01/27 07:08:35;;;;;;;7.38;6.25;;;7.00;99.90;;;7.05;70.87;102658.28;5071155;28;20057;-61
2023/01/27 07:11:05;;;;;;;8.73;6.57;;;7.00;99.90;;;6.92;71.01;102645.50;5072510;28;20127;-61
2023/01/27 07:13:33;;;;;;;8.55;6.63;;;6.90;99.90;;;7.04;70.85;102647.72;5072025;28;20047;-61
2023/01/27 07:16:03;;;;;;;6.72;6.13;;;7.00;99.90;;;6.83;70.84;102652.16;5072675;28;20048;-61
2023/01/27 07:18:31;;;;;;;7.63;6.45;;;6.90;99.90;;;6.98;70.97;102643.13;5073332;28;20046;-61
2023/01/27 07:21:00;;;;;;;7.65;6.28;;;6.90;99.90;;;7.04;70.99;102648.63;5072329;28;20043;-61
2023/01/27 07:23:28;;;;;;;7.15;6.47;;;7.00;99.90;;;7.12;70.97;102656.81;5071357;28;20048;-61
2023/01/27 07:25:56;;;;;;;7.30;6.60;;;7.00;99.90;;;7.16;70.64;102645.56;5072375;28;20040;-61
2023/01/27 07:28:28;;;;;;;7.03;6.32;;;7.10;99.90;;;6.95;70.50;102631.59;5072651;28;20048;-61
2023/01/27 07:31:00;;;;;;;7.40;6.65;;;7.00;99.90;;;6.90;70.47;102654.16;5072660;28;20049;-61
2023/01/27 07:33:30;;;;;;;7.47;6.78;;;6.90;99.90;;;6.87;70.49;102652.31;5072382;28;20056;-61
2023/01/27 07:35:58;;;;;;;7.80;7.10;;;6.80;99.90;;;6.93;70.71;102659.56;5072940;28;20048;-61
2023/01/27 07:38:27;;;;;;;8.30;7.50;;;6.90;99.90;;;7.02;70.73;102658.19;5072329;28;20135;-61
2023/01/27 07:40:56;;;;;;;8.77;7.45;;;6.90;99.90;;;7.00;70.54;102665.13;5072835;28;20119;-61
2023/01/27 07:43:25;;;;;;;8.98;7.13;;;6.90;99.90;;;7.02;70.31;102676.59;5072644;28;20197;-61
2023/01/27 07:45:55;;;;;;;6.88;6.18;;;7.00;99.90;;;6.77;70.21;102630.88;5071189;28;20481;-61
2023/01/27 07:48:24;;;;;;;9.25;6.50;;;6.90;99.90;;;7.03;70.46;102677.47;5072478;28;20055;-61
2023/01/27 07:50:54;;;;;;;7.28;6.45;;;6.90;99.90;;;7.07;69.95;102674.13;5087917;28;20041;-61
2023/01/27 07:53:22;;;;;;;10.10;6.75;;;7.00;99.90;;;7.08;70.36;102681.22;5072158;28;20040;-61
2023/01/27 07:55:51;;;;;;;6.78;5.97;;;7.00;99.90;;;7.12;70.38;102688.38;5071920;28;20041;-61
2023/01/27 07:58:19;;;;;;;7.38;6.00;;;7.00;99.90;;;7.16;70.20;102690.28;5072077;28;20084;-61
2023/01/27 08:00:47;;;;;;;7.05;5.85;;;7.00;99.90;;;7.20;70.14;102700.97;5072004;28;20047;-61
2023/01/27 08:03:23;;;;;;;7.05;6.40;;;7.10;99.90;;;7.22;70.03;102712.47;5071988;28;20074;-61
2023/01/27 08:05:51;;;;;;;7.93;6.22;;;7.20;99.90;;;7.18;69.95;102705.28;5072038;28;20041;-61
2023/01/27 08:08:21;;;;;;;6.72;6.05;;;7.10;99.90;;;7.28;69.89;102706.53;5071611;28;20395;-61
2023/01/27 08:10:50;;;;;;;11.00;6.35;;;7.20;99.90;;;7.18;69.84;102714.94;5072261;28;20557;-61
2023/01/27 08:13:18;;;;;;;7.78;6.38;;;7.20;99.90;;;7.14;69.84;102713.03;5071879;28;20119;-62
2023/01/27 08:15:46;;;;;;;7.03;6.30;;;7.10;99.90;;;7.21;69.86;102710.69;5071854;28;20052;-62
2023/01/27 08:18:15;;;;;;;7.38;6.63;;;7.10;99.90;;;7.21;69.77;102715.03;5072083;28;20040;-62
2023/01/27 08:20:43;;;;;;;6.32;5.72;;;7.20;99.90;;;7.10;69.91;102716.38;5072048;28;20044;-64
2023/01/27 08:23:13;;;;;;;6.25;5.75;;;7.00;99.90;;;7.07;69.30;102706.63;5072080;28;20482;-61
2023/01/27 08:25:50;;;;;;;7.00;5.45;;;7.00;99.90;;;7.01;69.38;102718.63;5074716;28;20040;-61
2023/01/27 08:28:19;;;;;;;8.98;5.60;;;6.90;99.90;;;6.87;69.24;102720.69;5075804;28;20047;-61
2023/01/27 08:30:50;;;;;;;5.97;5.45;;;6.90;99.90;;;6.84;69.40;102722.31;5075332;28;20120;-61
2023/01/27 08:33:20;;;;;;;7.22;5.45;;;6.90;99.90;;;6.82;68.99;102723.97;5075347;28;20047;-61
2023/01/27 08:35:48;;;;;;;8.50;5.55;;;6.80;99.90;;;6.74;69.71;102722.78;5074193;28;20037;-61
2023/01/27 08:38:19;;;;;;;6.72;5.32;;;6.70;99.90;;;6.82;69.71;102716.09;5075234;28;20081;-62
2023/01/27 08:40:49;;;;;;;10.15;5.50;;;6.70;99.90;;;6.96;69.49;102720.19;5075255;28;20102;-62
2023/01/27 08:43:18;;;;;;;6.50;5.90;;;6.80;99.90;;;6.88;69.24;102713.72;5075729;28;20048;-62
2023/01/27 08:45:46;;;;;;;8.73;5.50;;;6.90;99.90;;;6.86;69.36;102716.28;5075401;28;20036;-61
2023/01/27 08:48:15;;;;;;;8.35;5.57;;;6.80;99.90;;;7.19;69.46;102721.97;5075263;28;20048;-60
2023/01/27 08:50:43;;;;;;;8.05;5.32;;;7.00;99.90;;;7.42;68.44;102709.69;5075094;28;20044;-61
2023/01/27 08:53:12;;;;;;;5.65;4.80;;;7.30;99.90;;;7.56;67.75;102712.03;5074987;28;20076;-61
2023/01/27 08:55:40;;;;;;;6.55;5.35;;;7.50;99.90;;;7.69;67.44;102719.53;5074988;28;20047;-63
2023/01/27 08:58:10;;;;;;;5.60;5.10;;;7.60;99.90;;;7.66;67.28;102715.88;5074959;28;20128;-61
2023/01/27 09:00:38;;;;;;;6.43;5.17;;;7.60;99.90;;;7.78;67.20;102726.88;5074960;28;20076;-61
2023/01/27 09:03:07;;;;;;;7.80;5.13;;;7.70;99.90;;;7.73;66.99;102729.34;5074635;28;20110;-62
2023/01/27 09:05:36;;;;;;;6.35;5.25;;;7.70;99.90;;;7.94;67.16;102724.84;5074854;28;20119;-63
2023/01/27 09:08:06;;;;;;;7.68;5.18;;;7.80;99.90;;;7.95;66.98;102729.28;5074735;28;20061;-62
2023/01/27 09:10:38;;;;;;;8.80;4.90;;;7.90;99.90;;;8.01;66.53;102731.25;5074720;28;20502;-63
2023/01/27 09:13:09;;;;;;;7.10;5.20;;;8.00;99.90;;;8.07;66.82;102732.34;5074525;28;20040;-65
2023/01/27 09:15:39;;;;;;;;;;;8.00;99.90;;;7.89;66.77;102718.53;5075081;28;20040;-65
2023/01/27 09:18:07;;;;;;;7.82;5.32;;;8.00;99.90;;;8.06;66.97;102738.47;5073524;28;19927;-65
2023/01/27 09:20:36;;;;;;;5.88;5.28;;;8.00;99.90;;;8.29;66.87;102746.31;5074786;28;20036;-63
2023/01/27 09:23:05;;;;;;;7.63;4.82;;;8.20;99.90;;;8.48;66.69;102743.50;5074469;28;20045;-65
2023/01/27 09:25:34;;;;;;;9.38;5.40;;;8.40;99.90;;;8.73;66.21;102749.59;5074363;28;20052;-63
2023/01/27 09:28:02;;;;;;;6.57;5.18;;;8.60;99.90;;;9.31;66.02;102752.38;5074233;28;20103;-62
2023/01/27 09:30:32;;;;;;;7.22;4.80;;;9.10;99.90;;;9.49;64.05;102749.38;5089921;28;20040;-62
2023/01/27 09:33:00;;;;;;;5.93;4.90;;;9.40;99.90;;;9.48;62.68;102751.16;5074570;28;20044;-62
2023/01/27 09:35:36;;;;;;;8.35;5.15;;;9.50;99.90;;;9.28;61.96;102747.00;5074048;28;20037;-63
2023/01/27 09:38:05;;;;;;;10.00;5.20;;;9.40;99.90;;;9.31;62.11;102752.38;5074183;28;20052;-62
2023/01/27 09:40:46;;;;;;;5.97;4.47;;;9.30;99.90;;;9.31;62.46;102749.72;5074239;28;20390;-62
2023/01/27 09:43:53;;;;;;;6.97;4.80;;;9.30;99.90;;;9.54;62.05;102761.00;5074166;28;20052;-62
2023/01/27 09:46:50;;;;;;;9.40;4.85;;;9.40;99.90;;;9.51;61.94;102760.91;5072566;28;20052;-63
2023/01/27 09:49:40;;;;;;;9.52;4.70;;;9.50;99.90;;;9.85;61.31;102755.78;5073868;28;20052;-63
2023/01/27 09:52:36;;;;;;;8.18;4.60;;;9.70;99.90;;;10.19;60.25;102747.97;5073796;28;20136;-63
2023/01/27 09:55:24;;;;;;;5.70;4.75;;;10.10;99.90;;;10.36;58.79;102745.75;5074055;28;20048;-63
2023/01/27 09:58:03;;;;;;;5.70;4.50;;;10.30;99.90;;;10.59;59.34;102749.91;5073972;28;20131;-65
2023/01/27 10:00:46;;;;;;;7.47;4.47;;;10.50;99.90;;;10.79;57.96;102752.22;5073924;28;20387;-65
2023/01/27 10:04:05;;;;;;;9.40;4.63;;;10.70;99.90;;;10.92;57.23;102761.31;5073363;28;20056;-68
2023/01/27 10:07:04;;;;;;;6.53;4.60;;;10.80;99.90;;;11.21;56.67;102762.00;5071849;28;20080;-64
2023/01/27 10:09:58;;;;;;;6.65;4.72;;;11.10;99.90;;;11.32;56.63;102758.78;5073443;28;20550;-65
2023/01/27 10:12:45;;;;;;;7.28;4.53;;;11.20;99.90;;;11.61;56.13;102759.44;5065212;28;20083;-65
2023/01/27 10:15:32;;;;;;;4.82;4.22;;;11.50;99.90;;;11.82;55.30;102761.66;5088966;28;20122;-63
2023/01/27 10:18:15;;;;;;;9.00;4.47;;;11.70;99.90;;;12.14;55.11;102761.44;5073354;28;20049;-65
2023/01/27 10:20:51;;;;;;;5.38;4.70;;;12.00;99.90;;;12.31;53.65;102764.44;5073873;28;20051;-62
2023/01/27 10:23:34;;;;;;;5.10;4.63;;;12.20;99.90;;;12.10;53.05;102767.56;5073790;28;20045;-62
2023/01/27 10:26:15;;;;;;;4.80;4.30;;;12.10;99.90;;;12.14;53.28;102769.41;5073789;28;20048;-62
2023/01/27 10:28:50;;;;;;;5.13;4.30;;;12.10;99.90;;;12.26;52.27;102764.34;5073036;28;20029;-62
2023/01/27 10:31:25;;;;;;;4.85;4.32;;;12.20;99.90;;;12.50;52.19;102779.84;5073097;28;20044;-62
2023/01/27 10:33:57;;;;;;;5.30;4.32;;;12.40;99.90;;;12.53;51.50;102772.81;5073315;28;20041;-63
2023/01/27 10:36:29;;;;;;;5.00;4.38;;;12.50;99.90;;;12.37;51.32;102764.53;5073010;28;20040;-63
2023/01/27 10:39:23;;;;;;;6.00;4.10;;;12.40;99.90;;;12.07;51.87;102764.84;5073260;28;20052;-62
2023/01/27 10:42:05;;;;;;;6.63;4.40;;;12.10;99.90;;;12.22;52.27;102762.50;5072823;28;20203;-62
2023/01/27 10:44:55;;;;;;;5.15;4.65;;;12.10;99.90;;;12.50;52.09;102769.22;5072924;28;20135;-61
2023/01/27 10:47:39;;;;;;;5.13;4.30;;;12.40;99.90;;;12.46;51.40;102768.28;5072078;28;20055;-63
2023/01/27 10:50:13;;;;;;;4.75;4.30;;;12.40;99.90;;;12.63;51.50;102764.16;5072751;28;20547;-65
2023/01/27 10:52:48;;;;;;;4.90;4.40;;;12.50;99.90;;;12.75;51.35;102766.13;5072838;28;20041;-65
2023/01/27 10:55:24;;;;;;;6.53;4.22;;;12.70;99.90;;;12.79;50.65;102757.34;5071741;28;20094;-64
2023/01/27 10:57:58;;;;;;;4.22;3.88;;;12.80;99.90;;;12.90;50.73;102755.75;5073006;28;20385;-64
2023/01/27 11:00:34;;;;;;;4.45;4.15;;;12.80;99.90;;;12.94;50.73;102746.97;5073010;28;20097;-64
2023/01/27 11:03:28;;;;;;;4.88;4.43;;;12.90;99.90;;;12.88;50.65;102751.28;5072537;28;20131;-63
2023/01/27 11:06:01;;;;;;;4.78;4.32;;;12.80;99.90;;;13.01;51.32;102750.59;5072492;28;20085;-64
2023/01/27 11:08:35;;;;;;;4.53;4.13;;;12.90;99.90;;;12.96;50.32;102745.22;5087781;28;20053;-63
2023/01/27 11:14:03;;;;;;;5.03;4.40;;;13.00;99.90;;;12.81;51.04;102750.31;5072613;28;20078;-64
2023/01/27 11:16:36;;;;;;;5.07;4.47;;;12.80;99.90;;;12.78;50.91;102754.63;5073143;28;20049;-66